Time;durP1;ratioP1;P1;durP2;ratioP2;P2;SDS_P1;SDS_P2;PMS_P1;PMS_P2;Temp;Humidity;BMP_temperature;BMP_pressure;BME280_temperature;BME280_humidity;BME280_pressure;Samples;Min_cycle;Max_cycle;Signal;HPM_P1;HPM_P2
2021/01/16 00:00:24;;;;;;;7.50;3.78;;;2.20;1.00;;;;;;5053749;28;20211;-74
2021/01/16 00:02:56;;;;;;;9.00;4.75;;;2.10;1.00;;;;;;5053592;28;20628;-75
2021/01/16 00:05:28;;;;;;;14.98;5.93;;;2.20;1.00;;;;;;5053342;28;20191;-75
2021/01/16 00:08:11;;;;;;;9.77;4.50;;;2.20;1.00;;;;;;5038747;28;20677;-74
2021/01/16 00:10:56;;;;;;;10.27;4.65;;;2.20;1.00;;;;;;5033755;28;20515;-74
2021/01/16 00:13:23;;;;;;;11.60;4.45;;;2.30;1.00;;;;;;5033707;28;20205;-74
2021/01/16 00:15:50;;;;;;;9.90;4.88;;;2.30;1.00;;;;;;5047220;28;20179;-74
2021/01/16 00:18:20;;;;;;;10.70;5.20;;;2.30;1.00;;;;;;5051874;28;20229;-74
2021/01/16 00:20:48;;;;;;;7.57;4.18;;;2.20;1.00;;;;;;5053694;28;20171;-75
2021/01/16 00:23:14;;;;;;;13.15;5.50;;;2.20;1.00;;;;;;5053838;28;20583;-75
2021/01/16 00:25:42;;;;;;;9.98;5.45;;;2.30;1.00;;;;;;5053394;28;20191;-74
2021/01/16 00:28:29;;;;;;;9.55;5.15;;;2.30;1.00;;;;;;5043390;28;20164;-74
2021/01/16 00:30:57;;;;;;;7.38;4.35;;;2.30;1.00;;;;;;5033768;28;20168;-74
2021/01/16 00:33:38;;;;;;;9.20;4.50;;;2.30;1.00;;;;;;5033654;28;20153;-74
2021/01/16 00:36:14;;;;;;;11.18;4.45;;;2.20;1.00;;;;;;5051390;28;20184;-75
2021/01/16 00:38:50;;;;;;;8.70;4.40;;;2.20;1.00;;;;;;5038349;28;20575;-75
2021/01/16 00:41:20;;;;;;;9.73;4.68;;;2.20;1.00;;;;;;5033678;28;20615;-74
2021/01/16 00:43:50;;;;;;;11.60;4.82;;;2.20;1.00;;;;;;5033202;28;20481;-74
2021/01/16 00:46:44;;;;;;;12.10;5.43;;;2.20;1.00;;;;;;5046064;28;20528;-74
2021/01/16 00:49:14;;;;;;;7.38;4.10;;;2.30;1.00;;;;;;5052923;28;20148;-74
2021/01/16 00:51:46;;;;;;;11.27;4.78;;;2.20;1.00;;;;;;5052062;28;20623;-75
2021/01/16 00:54:11;;;;;;;11.13;4.93;;;2.20;1.00;;;;;;5057220;28;20164;-74
2021/01/16 00:56:39;;;;;;;9.13;3.60;;;2.20;1.00;;;;;;5052819;28;20197;-74
2021/01/16 00:59:04;;;;;;;11.05;4.82;;;2.10;1.00;;;;;;5056810;28;20180;-74
2021/01/16 01:01:34;;;;;;;7.10;4.17;;;2.10;1.00;;;;;;5041631;28;20211;-74
2021/01/16 01:04:02;;;;;;;12.02;4.72;;;2.20;1.00;;;;;;5036676;28;20612;-74
2021/01/16 01:06:29;;;;;;;11.10;4.32;;;2.20;1.00;;;;;;5049113;28;20199;-74
2021/01/16 01:09:27;;;;;;;7.43;4.47;;;2.10;1.00;;;;;;5057127;28;20198;-79
2021/01/16 01:11:56;;;;;;;10.35;4.60;;;2.10;1.00;;;;;;5054901;28;20172;-80
2021/01/16 01:14:26;;;;;;;10.82;5.20;;;2.10;1.00;;;;;;5041810;28;20687;-80
2021/01/16 01:17:17;;;;;;;10.48;3.80;;;2.10;1.00;;;;;;5035063;28;20173;-80
2021/01/16 01:19:44;;;;;;;11.93;5.35;;;2.10;1.00;;;;;;5036291;28;20157;-79
2021/01/16 01:22:14;;;;;;;6.95;4.50;;;2.10;1.00;;;;;;5036060;28;20169;-80
2021/01/16 01:25:08;;;;;;;7.05;4.40;;;2.10;1.00;;;;;;5036251;28;20681;-80
2021/01/16 01:27:49;;;;;;;9.57;5.20;;;2.10;1.00;;;;;;5036013;28;20176;-80
2021/01/16 01:33:44;;;;;;;8.82;3.75;;;2.10;1.00;;;;;;5035956;28;20582;-80
2021/01/16 01:36:14;;;;;;;8.48;3.80;;;2.20;1.00;;;;;;5045556;28;20536;-80
2021/01/16 01:38:44;;;;;;;6.07;3.50;;;2.20;1.00;;;;;;5055932;28;20703;-79
2021/01/16 01:44:32;;;;;;;6.53;3.20;;;2.30;1.00;;;;;;5035824;28;20638;-79
2021/01/16 01:50:20;;;;;;;6.85;4.38;;;2.20;1.00;;;;;;5036167;28;20172;-79
2021/01/16 01:53:26;;;;;;;7.82;4.15;;;2.20;1.00;;;;;;5035971;28;20527;-80
2021/01/16 01:55:59;;;;;;;6.82;3.67;;;2.20;1.00;;;;;;5051791;28;20190;-74
2021/01/16 01:58:34;;;;;;;8.65;4.45;;;2.20;1.00;;;;;;5047139;28;20172;-74
2021/01/16 02:01:11;;;;;;;13.32;4.28;;;2.20;1.00;;;;;;5055507;28;20666;-74
2021/01/16 02:03:41;;;;;;;10.40;4.70;;;2.20;1.00;;;;;;5055321;28;20166;-74
2021/01/16 02:06:07;;;;;;;10.07;4.93;;;2.20;1.00;;;;;;5055335;28;20657;-75
2021/01/16 02:11:55;;;;;;;7.32;3.83;;;2.00;1.00;;;;;;5052758;28;20175;-80
2021/01/16 02:15:02;;;;;;;10.25;4.15;;;2.00;1.00;;;;;;5035471;28;20152;-80
2021/01/16 02:17:31;;;;;;;5.00;3.05;;;2.00;1.00;;;;;;5035146;28;20235;-80
2021/01/16 02:23:38;;;;;;;5.80;3.58;;;2.00;1.00;;;;;;5055557;28;20194;-80
2021/01/16 02:26:15;;;;;;;6.18;2.90;;;2.00;1.00;;;;;;5047379;28;20191;-74
2021/01/16 02:28:56;;;;;;;4.55;3.20;;;2.00;1.00;;;;;;5035378;28;20246;-74
2021/01/16 02:31:35;;;;;;;5.63;3.70;;;2.00;1.00;;;;;;5035126;28;20161;-75
2021/01/16 02:34:04;;;;;;;4.55;3.25;;;2.00;1.00;;;;;;5034915;28;20169;-75
2021/01/16 02:36:57;;;;;;;8.05;3.88;;;2.00;1.00;;;;;;5051187;28;20596;-74
2021/01/16 02:39:41;;;;;;;6.43;2.97;;;1.90;1.00;;;;;;5053268;28;20159;-74
2021/01/16 02:42:14;;;;;;;6.05;3.33;;;1.90;1.00;;;;;;5054751;28;20166;-74
2021/01/16 02:45:11;;;;;;;4.80;3.22;;;1.90;1.00;;;;;;5054884;28;20582;-74
2021/01/16 02:48:12;;;;;;;6.15;3.42;;;1.80;1.00;;;;;;5032653;28;20624;-74
2021/01/16 02:50:44;;;;;;;5.70;2.75;;;1.80;1.00;;;;;;5032489;28;20167;-74
2021/01/16 02:53:18;;;;;;;7.15;2.80;;;1.80;1.00;;;;;;5032494;28;20153;-74
2021/01/16 02:55:44;;;;;;;7.85;3.22;;;1.70;1.00;;;;;;5021319;28;20181;-74
2021/01/16 02:58:10;;;;;;;3.70;2.50;;;1.70;1.00;;;;;;5012610;28;20548;-74
2021/01/16 03:01:08;;;;;;;6.70;3.45;;;1.60;1.00;;;;;;4999665;28;20461;-74
2021/01/16 03:03:36;;;;;;;5.53;3.03;;;1.60;1.00;;;;;;5012686;28;20201;-74
2021/01/16 03:06:15;;;;;;;6.75;2.67;;;1.50;1.00;;;;;;5021154;28;20200;-74
2021/01/16 03:08:50;;;;;;;4.65;2.47;;;1.50;1.00;;;;;;5032175;28;20188;-74
2021/01/16 03:11:16;;;;;;;7.85;3.88;;;1.40;1.00;;;;;;5030765;28;20192;-80
2021/01/16 03:13:47;;;;;;;4.70;3.20;;;1.30;1.00;;;;;;5032229;28;20264;-79
2021/01/16 03:19:37;;;;;;;4.38;2.78;;;1.20;1.00;;;;;;5032442;28;20226;-80
2021/01/16 03:25:26;;;;;;;2.85;2.22;;;1.10;1.00;;;;;;5038233;28;20230;-79
2021/01/16 03:31:13;;;;;;;5.38;2.72;;;1.10;1.00;;;;;;5053847;28;20159;-79
2021/01/16 03:33:56;;;;;;;4.53;2.50;;;1.10;1.00;;;;;;5054120;28;20164;-80
2021/01/16 03:36:22;;;;;;;4.60;2.88;;;1.10;1.00;;;;;;5051863;28;20187;-74
2021/01/16 03:38:50;;;;;;;3.80;2.73;;;1.10;1.00;;;;;;5053945;28;20164;-74
2021/01/16 03:41:20;;;;;;;2.10;1.90;;;1.10;1.00;;;;;;5054182;28;20591;-74
2021/01/16 03:43:51;;;;;;;8.35;3.30;;;1.10;1.00;;;;;;5053639;28;20586;-74
2021/01/16 03:46:20;;;;;;;6.25;2.65;;;1.20;1.00;;;;;;5053615;28;20187;-74
2021/01/16 03:48:46;;;;;;;2.65;2.00;;;;;;;;;;5052161;28;20191;-74
2021/01/16 03:51:14;;;;;;;3.72;2.50;;;1.20;1.00;;;;;;5053615;28;20623;-74
2021/01/16 03:53:40;;;;;;;4.70;2.55;;;1.30;1.00;;;;;;5053761;28;20178;-74
2021/01/16 03:59:27;;;;;;;6.63;2.83;;;1.40;1.00;;;;;;5033544;28;20226;-79
2021/01/16 04:02:21;;;;;;;3.40;2.30;;;1.30;1.00;;;;;;5033774;28;20196;-79
2021/01/16 04:11:50;;;;;;;3.10;2.22;;;1.40;1.00;;;;;;5033871;28;20226;-74
2021/01/16 04:14:15;;;;;;;3.80;1.60;;;1.40;1.00;;;;;;5033844;28;20149;-74
2021/01/16 04:16:50;;;;;;;4.57;1.70;;;1.40;1.00;;;;;;5033906;28;20623;-74
2021/01/16 04:19:16;;;;;;;3.28;1.90;;;;;;;;;;5033830;28;20164;-74
2021/01/16 04:21:42;;;;;;;5.57;3.03;;;1.50;1.00;;;;;;5047900;28;20234;-74
2021/01/16 04:24:15;;;;;;;4.60;2.50;;;1.50;1.00;;;;;;5033678;28;20255;-74
2021/01/16 04:30:04;;;;;;;3.80;2.13;;;1.60;1.00;;;;;;5057363;28;20159;-80
2021/01/16 04:32:38;;;;;;;2.47;1.77;;;1.60;1.00;;;;;;5057145;28;20250;-80
2021/01/16 04:38:26;;;;;;;3.25;1.95;;;1.50;1.00;;;;;;5057235;28;20155;-80
2021/01/16 04:51:00;;;;;;;3.65;2.22;;;1.60;1.00;;;;;;5057141;28;20622;-79
2021/01/16 04:57:12;;;;;;;2.97;2.08;;;1.60;1.00;;;;;;5041712;28;20222;-80
2021/01/16 04:59:38;;;;;;;4.55;2.10;;;1.50;1.00;;;;;;5043912;28;20207;-80
2021/01/16 05:02:10;;;;;;;3.65;2.30;;;1.50;1.00;;;;;;5057025;28;20160;-79
2021/01/16 05:05:02;;;;;;;3.03;2.08;;;1.50;1.00;;;;;;5056425;28;20178;-80
2021/01/16 05:10:56;;;;;;;4.22;2.75;;;1.60;1.00;;;;;;5037322;28;20666;-80
2021/01/16 05:13:43;;;;;;;4.82;2.90;;;1.60;1.00;;;;;;5037049;28;20575;-80
2021/01/16 05:16:18;;;;;;;5.00;2.17;;;1.70;1.00;;;;;;5056630;28;20160;-81
2021/01/16 05:19:09;;;;;;;6.15;2.88;;;1.60;1.00;;;;;;5055153;28;20202;-81
2021/01/16 05:25:26;;;;;;;4.45;2.22;;;;;;;;;;5036565;28;20287;-80
2021/01/16 05:28:01;;;;;;;5.25;2.50;;;1.60;1.00;;;;;;5036553;28;20171;-74
2021/01/16 05:30:29;;;;;;;5.88;2.50;;;1.70;1.00;;;;;;5036319;28;20230;-75
2021/01/16 05:33:24;;;;;;;7.00;3.13;;;1.60;1.00;;;;;;5036073;28;20172;-75
2021/01/16 05:35:58;;;;;;;3.40;2.40;;;1.70;1.00;;;;;;5043038;28;20180;-74
2021/01/16 05:38:42;;;;;;;5.30;3.05;;;1.70;1.00;;;;;;5055060;28;20554;-74
2021/01/16 05:41:12;;;;;;;2.15;2.05;;;1.70;1.00;;;;;;5056418;28;20184;-74
2021/01/16 05:43:41;;;;;;;2.35;1.80;;;1.70;1.00;;;;;;5055594;28;20619;-75
2021/01/16 05:46:12;;;;;;;6.05;2.42;;;1.70;1.00;;;;;;5047862;28;20200;-74
2021/01/16 05:48:38;;;;;;;2.88;2.38;;;1.70;1.00;;;;;;5036057;28;20202;-74
2021/01/16 05:51:08;;;;;;;4.72;2.80;;;1.70;1.00;;;;;;5046518;28;20179;-75
2021/01/16 05:53:39;;;;;;;5.93;3.40;;;1.70;1.00;;;;;;5055795;28;20163;-74
2021/01/16 05:59:31;;;;;;;3.10;2.40;;;1.70;1.00;;;;;;5035367;28;20187;-79
2021/01/16 06:01:58;;;;;;;4.20;2.47;;;1.60;1.00;;;;;;5035468;28;20184;-80
2021/01/16 06:04:24;;;;;;;5.20;2.63;;;;;;;;;;5035748;28;20196;-79
2021/01/16 06:07:07;;;;;;;4.35;2.28;;;1.60;1.00;;;;;;5053813;28;20219;-79
2021/01/16 06:09:38;;;;;;;6.25;2.70;;;1.50;1.00;;;;;;5053242;28;20160;-79
2021/01/16 06:12:12;;;;;;;4.55;2.50;;;1.50;1.00;;;;;;5055605;28;20163;-74
2021/01/16 06:14:45;;;;;;;5.95;2.47;;;1.50;1.00;;;;;;5034804;28;20219;-74
2021/01/16 06:17:16;;;;;;;2.80;1.60;;;1.50;1.00;;;;;;5050763;28;20170;-75
2021/01/16 06:19:47;;;;;;;4.97;2.67;;;1.50;1.00;;;;;;5055381;28;20188;-74
2021/01/16 06:22:14;;;;;;;2.92;1.95;;;1.50;1.00;;;;;;5055117;28;20156;-74
2021/01/16 06:25:28;;;;;;;3.78;3.05;;;1.60;1.00;;;;;;5055389;28;20206;-74
2021/01/16 06:34:39;;;;;;;3.70;1.42;;;1.60;1.00;;;;;;5018911;28;20239;-80
2021/01/16 06:40:34;;;;;;;2.05;1.83;;;1.30;1.00;;;;;;5014059;28;20359;-79
2021/01/16 06:43:15;;;;;;;5.47;2.65;;;1.40;1.00;;;;;;5030884;28;20176;-74
2021/01/16 06:45:44;;;;;;;1.77;1.67;;;1.40;1.00;;;;;;5032629;28;20211;-74
2021/01/16 06:48:23;;;;;;;2.33;2.08;;;1.40;1.00;;;;;;5016152;28;20582;-74
2021/01/16 06:50:53;;;;;;;3.30;2.58;;;1.50;1.00;;;;;;5017641;28;20188;-74
2021/01/16 06:53:26;;;;;;;3.92;2.25;;;1.40;1.00;;;;;;5012685;28;20612;-75
2021/01/16 06:59:14;;;;;;;2.42;1.45;;;1.50;1.00;;;;;;5032347;28;20195;-79
2021/01/16 07:01:41;;;;;;;3.60;1.63;;;1.50;1.00;;;;;;5023289;28;20185;-75
2021/01/16 07:04:23;;;;;;;2.17;1.60;;;1.50;1.00;;;;;;5022062;28;20511;-74
2021/01/16 07:06:49;;;;;;;2.05;1.35;;;1.50;1.00;;;;;;5050372;28;20214;-74
2021/01/16 07:09:20;;;;;;;4.85;2.40;;;1.40;1.00;;;;;;5054425;28;20161;-74
2021/01/16 07:11:56;;;;;;;2.22;1.48;;;1.50;1.00;;;;;;5041568;28;20169;-74
2021/01/16 07:14:26;;;;;;;1.60;1.20;;;1.30;1.00;;;;;;5034288;28;20630;-75
2021/01/16 07:16:56;;;;;;;1.85;1.52;;;1.30;1.00;;;;;;5034336;28;20568;-77
2021/01/16 07:19:23;;;;;;;1.63;1.42;;;1.30;1.00;;;;;;5033044;28;20246;-74
2021/01/16 07:21:57;;;;;;;8.07;2.25;;;1.30;1.00;;;;;;5034386;28;20252;-78
2021/01/16 07:24:50;;;;;;;2.05;1.80;;;1.30;1.00;;;;;;5034536;28;20168;-75
2021/01/16 07:30:38;;;;;;;1.52;1.05;;;1.30;1.00;;;;;;5034273;28;20242;-82
2021/01/16 07:36:28;;;;;;;3.00;1.58;;;1.40;1.00;;;;;;5038521;28;20179;-80
2021/01/16 07:39:02;;;;;;;4.93;1.83;;;1.40;1.00;;;;;;5052709;28;20187;-80
2021/01/16 07:44:59;;;;;;;1.80;1.42;;;1.40;1.00;;;;;;5053580;28;20245;-79
2021/01/16 07:54:50;;;;;;;1.70;1.60;;;1.40;1.00;;;;;;5053647;28;20263;-80
2021/01/16 08:00:44;;;;;;;2.72;1.40;;;1.50;1.00;;;;;;5034288;28;20231;-79
2021/01/16 08:03:56;;;;;;;4.25;1.38;;;1.60;1.00;;;;;;5040231;28;20600;-79
2021/01/16 08:06:55;;;;;;;1.90;1.52;;;1.60;1.00;;;;;;5039889;28;20253;-79
2021/01/16 08:12:47;;;;;;;5.47;1.25;;;1.70;1.00;;;;;;5043527;28;20190;-79
2021/01/16 08:18:58;;;;;;;1.70;1.45;;;1.70;1.00;;;;;;5047591;28;20254;-79
2021/01/16 08:25:02;;;;;;;1.58;1.48;;;;;;;;;;5040275;28;20574;-79
2021/01/16 08:27:41;;;;;;;1.48;1.30;;;1.50;1.00;;;;;;5040502;28;20163;-74
2021/01/16 08:30:08;;;;;;;0.93;0.80;;;1.60;1.00;;;;;;5059996;28;20160;-74
2021/01/16 08:32:59;;;;;;;1.70;1.00;;;1.60;1.00;;;;;;5055705;28;20161;-74
2021/01/16 08:35:43;;;;;;;0.98;0.98;;;1.60;1.00;;;;;;5018117;28;20637;-75
2021/01/16 08:38:17;;;;;;;2.28;1.30;;;1.70;1.00;;;;;;5017804;28;20208;-74
2021/01/16 08:40:55;;;;;;;1.45;1.35;;;1.80;1.00;;;;;;5037919;28;20192;-74
2021/01/16 08:46:45;;;;;;;1.50;0.90;;;2.00;1.00;;;;;;5035335;28;20226;-79
2021/01/16 08:49:19;;;;;;;2.13;1.10;;;2.00;1.00;;;;;;5036059;28;20269;-79
2021/01/16 08:51:52;;;;;;;1.48;1.38;;;2.00;1.00;;;;;;5037503;28;20221;-79
2021/01/16 08:55:04;;;;;;;2.58;1.60;;;2.00;1.00;;;;;;5037871;28;20168;-79
2021/01/16 08:57:32;;;;;;;1.58;1.15;;;2.10;1.00;;;;;;5032971;28;20562;-74
2021/01/16 09:00:30;;;;;;;1.25;1.15;;;2.20;1.00;;;;;;5031827;28;20197;-75
2021/01/16 09:03:16;;;;;;;3.38;1.95;;;2.30;1.00;;;;;;4940179;29;20234;-74
2021/01/16 09:05:46;;;;;;;3.28;1.58;;;2.40;1.00;;;;;;4940170;29;20602;-74
2021/01/16 09:08:32;;;;;;;1.73;1.35;;;2.40;1.00;;;;;;4940319;29;20262;-74
2021/01/16 09:11:16;;;;;;;1.52;1.02;;;;;;;;;;4939905;29;20193;-74
2021/01/16 09:13:44;;;;;;;4.10;1.02;;;2.40;1.00;;;;;;4956244;28;20277;-79
2021/01/16 09:16:39;;;;;;;1.08;0.98;;;2.60;1.00;;;;;;4956326;29;20295;-79
2021/01/16 09:19:27;;;;;;;1.40;1.25;;;2.70;1.00;;;;;;4956432;29;20206;-79
2021/01/16 09:22:27;;;;;;;1.65;1.55;;;2.70;1.00;;;;;;4956194;28;20179;-80
2021/01/16 09:28:50;;;;;;;2.55;1.33;;;2.80;1.00;;;;;;4960870;28;20230;-82
2021/01/16 09:31:45;;;;;;;1.42;1.33;;;2.80;1.00;;;;;;4965737;28;20260;-78
2021/01/16 09:34:13;;;;;;;20.70;1.67;;;2.80;1.00;;;;;;4956023;29;20183;-83
2021/01/16 09:37:26;;;;;;;1.33;1.23;;;2.90;1.00;;;;;;4955660;29;20650;-80
2021/01/16 09:43:18;;;;;;;2.40;1.40;;;3.00;1.00;;;;;;5034240;28;20250;-74
2021/01/16 09:46:02;;;;;;;1.83;1.40;;;3.00;1.00;;;;;;5041877;28;20626;-76
2021/01/16 09:48:36;;;;;;;2.78;1.20;;;2.90;1.00;;;;;;5017496;28;20254;-72
2021/01/16 09:51:03;;;;;;;2.78;1.80;;;2.90;1.00;;;;;;5045251;28;20179;-72
2021/01/16 09:53:45;;;;;;;5.03;1.90;;;2.90;1.00;;;;;;5033819;28;20632;-75
2021/01/16 09:59:32;;;;;;;2.22;1.95;;;3.00;1.00;;;;;;5033810;28;20258;-79
2021/01/16 10:08:41;;;;;;;2.47;1.85;;;3.20;1.00;;;;;;5035582;28;20663;-79
2021/01/16 10:14:36;;;;;;;2.97;1.48;;;3.10;1.00;;;;;;5053231;28;20923;-74
2021/01/16 10:17:11;;;;;;;1.60;1.38;;;3.10;1.00;;;;;;5055192;28;20194;-74
2021/01/16 10:19:51;;;;;;;2.75;2.05;;;;;;;;;;5055052;28;20163;-74
2021/01/16 10:22:19;;;;;;;3.70;1.83;;;3.20;1.00;;;;;;5035504;28;20163;-74
2021/01/16 10:24:45;;;;;;;2.10;1.63;;;3.20;1.00;;;;;;5040781;28;20164;-74
2021/01/16 10:27:49;;;;;;;2.92;1.50;;;3.20;1.00;;;;;;5054907;28;20635;-75
2021/01/16 10:30:23;;;;;;;1.90;1.80;;;3.30;1.00;;;;;;5035048;28;20187;-74
2021/01/16 10:32:52;;;;;;;3.78;1.63;;;3.30;1.00;;;;;;5045227;28;20163;-74
2021/01/16 10:35:25;;;;;;;2.83;2.00;;;3.30;1.00;;;;;;5053254;28;20172;-74
2021/01/16 10:37:58;;;;;;;3.08;2.20;;;3.40;1.00;;;;;;5034788;28;20655;-74
2021/01/16 10:40:29;;;;;;;2.63;1.75;;;3.50;1.00;;;;;;5035062;28;20164;-74
2021/01/16 10:43:13;;;;;;;3.00;2.40;;;3.50;1.00;;;;;;5049332;28;20171;-74
2021/01/16 10:46:05;;;;;;;1.58;1.48;;;3.40;1.00;;;;;;5034669;28;20188;-74
2021/01/16 10:48:34;;;;;;;2.83;1.77;;;3.50;1.00;;;;;;5049424;28;20206;-74
2021/01/16 10:51:00;;;;;;;2.67;2.20;;;3.50;1.00;;;;;;5053544;28;20230;-74
2021/01/16 10:53:37;;;;;;;2.75;2.10;;;3.50;1.00;;;;;;5038220;28;20165;-74
2021/01/16 10:56:25;;;;;;;2.95;1.55;;;3.60;1.00;;;;;;5034759;28;20638;-75
2021/01/16 10:59:05;;;;;;;3.20;1.90;;;3.70;1.00;;;;;;5034258;28;20164;-75
2021/01/16 11:01:49;;;;;;;4.63;2.42;;;3.70;1.00;;;;;;5049877;28;20241;-84
2021/01/16 11:04:39;;;;;;;4.30;2.65;;;3.80;1.00;;;;;;5033924;28;20172;-80
2021/01/16 11:10:46;;;;;;;4.45;2.25;;;3.80;1.00;;;;;;5034336;28;20179;-79
2021/01/16 11:13:21;;;;;;;4.90;2.83;;;3.90;1.00;;;;;;5034232;28;20157;-82
2021/01/16 11:16:26;;;;;;;2.92;2.30;;;3.90;1.00;;;;;;5034609;28;20171;-81
2021/01/16 11:19:17;;;;;;;4.07;2.40;;;3.90;1.00;;;;;;5050286;28;20635;-75
2021/01/16 11:25:12;;;;;;;4.55;2.60;;;3.80;1.00;;;;;;5042630;28;20218;-79
2021/01/16 11:34:59;;;;;;;5.13;1.90;;;3.70;1.00;;;;;;5037164;28;20712;-78
2021/01/16 11:40:52;;;;;;;2.78;2.05;;;3.70;1.00;;;;;;5053725;28;20240;-79
2021/01/16 11:53:25;;;;;;;3.20;2.20;;;3.40;1.00;;;;;;5053525;28;20282;-80
2021/01/16 11:59:13;;;;;;;4.63;2.40;;;3.00;1.00;;;;;;5053593;28;20190;-79
2021/01/16 12:02:13;;;;;;;6.32;2.92;;;3.00;1.00;;;;;;5053778;28;20163;-79
2021/01/16 12:08:15;;;;;;;3.10;2.08;;;2.90;1.00;;;;;;5053514;28;20214;-79
2021/01/16 12:10:42;;;;;;;1.73;1.48;;;2.70;1.00;;;;;;5052029;28;20176;-79
2021/01/16 12:13:27;;;;;;;2.83;2.30;;;2.60;1.00;;;;;;5053591;28;20247;-80
2021/01/16 12:19:15;;;;;;;4.63;2.80;;;2.50;1.00;;;;;;5053178;28;20183;-79
2021/01/16 12:25:44;;;;;;;4.43;1.95;;;2.60;1.00;;;;;;5044600;28;20695;-81
2021/01/16 12:28:56;;;;;;;3.22;2.05;;;2.60;1.00;;;;;;5045739;28;20206;-78
2021/01/16 12:34:45;;;;;;;2.00;1.35;;;2.70;1.00;;;;;;5038378;28;20179;-77
2021/01/16 12:37:12;;;;;;;3.00;2.10;;;2.70;1.00;;;;;;5033057;28;20188;-73
2021/01/16 12:39:39;;;;;;;4.80;3.03;;;2.60;1.00;;;;;;5031925;28;20180;-74
2021/01/16 12:42:09;;;;;;;4.75;2.63;;;2.90;1.00;;;;;;5052963;28;20191;-76
2021/01/16 12:44:35;;;;;;;3.58;2.42;;;2.90;1.00;;;;;;5046024;28;20282;-76
2021/01/16 12:47:32;;;;;;;5.53;2.30;;;2.90;1.00;;;;;;5034931;28;20196;-79
2021/01/16 12:53:20;;;;;;;2.28;1.45;;;3.00;1.00;;;;;;5057098;28;20557;-79
2021/01/16 12:59:18;;;;;;;5.88;2.42;;;3.00;1.00;;;;;;5036228;28;20195;-78
2021/01/16 13:05:11;;;;;;;4.93;2.13;;;3.00;1.00;;;;;;5055075;28;20195;-72
2021/01/16 13:07:38;;;;;;;5.97;3.00;;;3.00;1.00;;;;;;5046255;28;20172;-74
2021/01/16 13:10:10;;;;;;;4.55;2.15;;;3.00;1.00;;;;;;5047499;28;20171;-73
2021/01/16 13:16:21;;;;;;;4.10;2.20;;;3.10;1.00;;;;;;5036464;28;20202;-80
2021/01/16 13:18:47;;;;;;;2.00;1.55;;;3.00;1.00;;;;;;5036419;28;20258;-72
2021/01/16 13:21:13;;;;;;;3.30;2.40;;;3.10;1.00;;;;;;5048021;28;20306;-72
2021/01/16 13:23:46;;;;;;;4.47;2.30;;;3.10;1.00;;;;;;5055888;28;20195;-72
2021/01/16 13:26:13;;;;;;;2.20;2.00;;;3.20;1.00;;;;;;5055988;28;20516;-72
2021/01/16 13:28:43;;;;;;;3.03;2.03;;;3.20;1.00;;;;;;5054620;28;20175;-75
2021/01/16 13:31:10;;;;;;;3.72;2.28;;;3.20;1.00;;;;;;5054804;28;20548;-74
2021/01/16 13:33:36;;;;;;;4.13;2.65;;;3.10;1.00;;;;;;5039222;28;20226;-80
2021/01/16 13:36:16;;;;;;;4.43;2.60;;;2.90;1.00;;;;;;5035986;28;20188;-78
2021/01/16 13:42:25;;;;;;;4.00;2.38;;;3.00;1.00;;;;;;5035780;28;20195;-78
2021/01/16 13:45:05;;;;;;;4.50;1.90;;;3.00;1.00;;;;;;5038976;28;20176;-77
2021/01/16 13:47:57;;;;;;;2.00;1.90;;;2.90;1.00;;;;;;5047963;28;20600;-77
2021/01/16 13:50:56;;;;;;;2.63;1.45;;;2.90;1.00;;;;;;5052414;28;20184;-77
2021/01/16 13:53:34;;;;;;;3.13;1.90;;;2.80;1.00;;;;;;5055517;28;20202;-77
2021/01/16 13:56:09;;;;;;;2.00;1.90;;;2.80;1.00;;;;;;5054293;28;20195;-77
2021/01/16 13:58:42;;;;;;;4.97;2.08;;;2.90;1.00;;;;;;5052968;28;20171;-77
2021/01/16 14:01:42;;;;;;;5.20;2.30;;;2.90;1.00;;;;;;5052741;28;20196;-74
2021/01/16 14:04:27;;;;;;;4.30;2.05;;;2.90;1.00;;;;;;5038762;28;20222;-77
2021/01/16 14:06:57;;;;;;;5.85;2.35;;;2.90;1.00;;;;;;5053394;28;20286;-77
2021/01/16 14:09:29;;;;;;;5.30;2.53;;;2.90;1.00;;;;;;5043782;28;20179;-79
2021/01/16 14:12:38;;;;;;;2.38;2.03;;;2.80;1.00;;;;;;5052102;28;20188;-79
2021/01/16 14:15:26;;;;;;;3.13;2.35;;;2.90;1.00;;;;;;5044669;28;20671;-80
2021/01/16 14:17:52;;;;;;;7.28;2.70;;;2.80;1.00;;;;;;5039693;28;20188;-79
2021/01/16 14:20:47;;;;;;;4.63;2.80;;;2.80;1.00;;;;;;5040915;28;20203;-74
2021/01/16 14:23:32;;;;;;;2.80;2.17;;;2.80;1.00;;;;;;5034055;28;20667;-77
2021/01/16 14:26:20;;;;;;;5.30;2.83;;;2.70;1.00;;;;;;5047010;28;20199;-74
2021/01/16 14:28:50;;;;;;;3.13;2.30;;;2.70;1.00;;;;;;5038724;28;20203;-75
2021/01/16 14:31:22;;;;;;;6.22;2.50;;;2.70;1.00;;;;;;5035774;28;20180;-74
2021/01/16 14:34:00;;;;;;;3.17;2.15;;;2.70;1.00;;;;;;5050260;28;20698;-75
2021/01/16 14:36:28;;;;;;;6.85;2.80;;;2.70;1.00;;;;;;5041135;28;20584;-75
2021/01/16 14:39:01;;;;;;;6.22;2.45;;;2.60;1.00;;;;;;5048369;28;20180;-74
2021/01/16 14:45:14;;;;;;;7.80;3.58;;;2.50;1.00;;;;;;5037729;28;20600;-77
2021/01/16 14:48:26;;;;;;;5.15;2.70;;;2.40;1.00;;;;;;5048129;28;20188;-80
2021/01/16 14:51:24;;;;;;;2.72;2.05;;;2.40;1.00;;;;;;5034526;28;20338;-80
2021/01/16 14:53:58;;;;;;;1.80;1.65;;;2.40;1.00;;;;;;5046156;28;20180;-80
2021/01/16 14:56:53;;;;;;;2.25;1.73;;;2.40;1.00;;;;;;5045657;28;20182;-80
2021/01/16 14:59:37;;;;;;;8.30;1.95;;;2.40;1.00;;;;;;5032858;28;20552;-79
2021/01/16 15:05:29;;;;;;;9.73;2.40;;;2.30;1.00;;;;;;5049355;28;20260;-79
2021/01/16 15:08:26;;;;;;;4.20;2.15;;;2.30;1.00;;;;;;5035752;28;20534;-79
2021/01/16 15:11:26;;;;;;;5.22;2.13;;;2.20;1.00;;;;;;5049215;28;20194;-79
2021/01/16 15:14:03;;;;;;;3.88;1.55;;;2.20;1.00;;;;;;5048787;28;20646;-80
2021/01/16 15:16:57;;;;;;;5.32;2.30;;;2.10;1.00;;;;;;5049281;28;20236;-79
2021/01/16 15:19:33;;;;;;;2.45;1.55;;;2.10;1.00;;;;;;5036012;28;20231;-79
2021/01/16 15:22:07;;;;;;;2.83;2.10;;;2.10;1.00;;;;;;5034451;28;20199;-74
2021/01/16 15:24:34;;;;;;;3.28;2.00;;;2.10;1.00;;;;;;5043206;28;20184;-74
2021/01/16 15:27:00;;;;;;;2.42;1.92;;;2.00;1.00;;;;;;5046677;28;20204;-74
2021/01/16 15:29:33;;;;;;;3.53;2.13;;;2.00;1.00;;;;;;5044572;28;20199;-74
2021/01/16 15:31:59;;;;;;;3.08;2.15;;;2.10;1.00;;;;;;5041202;28;20184;-74
2021/01/16 15:34:50;;;;;;;1.80;1.58;;;2.00;1.00;;;;;;5035104;28;20208;-80
2021/01/16 15:37:27;;;;;;;1.95;1.25;;;2.00;1.00;;;;;;5043463;28;20644;-79
2021/01/16 15:39:57;;;;;;;4.40;1.85;;;2.00;1.00;;;;;;5041086;28;20253;-80
2021/01/16 15:42:29;;;;;;;2.25;1.50;;;1.90;1.00;;;;;;5052991;28;20329;-80
2021/01/16 15:45:08;;;;;;;3.90;1.80;;;1.90;1.00;;;;;;5041123;28;20181;-81
2021/01/16 15:47:51;;;;;;;1.58;1.27;;;1.90;1.00;;;;;;5034927;28;20180;-81
2021/01/16 15:50:27;;;;;;;9.88;2.90;;;1.80;1.00;;;;;;5051905;28;20214;-75
2021/01/16 15:52:54;;;;;;;1.80;1.58;;;1.80;1.00;;;;;;5042345;28;20190;-75
2021/01/16 15:55:27;;;;;;;2.45;1.30;;;1.80;1.00;;;;;;5042406;28;20584;-75
2021/01/16 15:57:57;;;;;;;2.00;1.70;;;1.80;1.00;;;;;;5048552;28;20274;-75
2021/01/16 16:00:30;;;;;;;2.22;1.60;;;1.80;1.00;;;;;;5041523;28;20227;-75
2021/01/16 16:03:20;;;;;;;4.13;1.95;;;;;;;;;;5049258;28;20196;-75
2021/01/16 16:05:51;;;;;;;3.60;2.15;;;1.70;1.00;;;;;;5038010;28;20200;-75
2021/01/16 16:08:17;;;;;;;1.98;1.73;;;;;;;;;;5042663;28;20176;-75
2021/01/16 16:11:21;;;;;;;1.60;1.48;;;1.70;1.00;;;;;;5043944;28;20180;-81
2021/01/16 16:13:51;;;;;;;3.03;1.52;;;1.70;1.00;;;;;;5039447;28;20180;-75
2021/01/16 16:16:27;;;;;;;3.08;2.17;;;1.70;1.00;;;;;;5045695;28;20180;-75
2021/01/16 16:18:57;;;;;;;2.00;1.08;;;1.70;1.00;;;;;;5048213;28;20663;-80
2021/01/16 16:21:44;;;;;;;3.15;1.48;;;1.60;1.00;;;;;;5042324;28;20188;-80
2021/01/16 16:24:27;;;;;;;3.70;2.05;;;1.60;1.00;;;;;;5047939;28;20192;-81
2021/01/16 16:27:26;;;;;;;2.47;1.40;;;1.60;1.00;;;;;;5041612;28;20556;-81
2021/01/16 16:30:20;;;;;;;1.10;1.00;;;1.60;1.00;;;;;;5047287;28;20703;-81
2021/01/16 16:32:52;;;;;;;4.00;2.13;;;1.60;1.00;;;;;;5049484;28;20176;-81
2021/01/16 16:35:18;;;;;;;2.65;2.25;;;1.60;1.00;;;;;;5042854;28;20176;-75
2021/01/16 16:37:58;;;;;;;4.60;2.05;;;1.60;1.00;;;;;;5045857;28;20179;-74
2021/01/16 16:40:26;;;;;;;3.67;1.83;;;1.60;1.00;;;;;;5046111;28;20663;-75
2021/01/16 16:43:03;;;;;;;1.92;1.33;;;1.60;1.00;;;;;;5047989;28;20191;-75
2021/01/16 16:45:47;;;;;;;1.85;1.50;;;1.60;1.00;;;;;;5046191;28;20690;-75
2021/01/16 16:48:14;;;;;;;2.67;1.60;;;1.50;1.00;;;;;;5043067;28;20187;-80
2021/01/16 16:50:41;;;;;;;3.53;2.47;;;1.40;1.00;;;;;;5047270;28;20180;-75
2021/01/16 16:53:21;;;;;;;5.22;2.17;;;;;;;;;;5052864;28;20185;-75
2021/01/16 16:55:47;;;;;;;1.67;1.50;;;;;;;;;;5046631;28;20176;-75
2021/01/16 16:58:22;;;;;;;2.00;1.60;;;;;;;;;;5047743;28;20196;-74
2021/01/16 17:00:57;;;;;;;1.85;1.75;;;1.30;1.00;;;;;;5047281;28;20218;-74
2021/01/16 17:03:33;;;;;;;2.10;1.73;;;1.30;1.00;;;;;;5042157;28;20187;-74
2021/01/16 17:06:53;;;;;;;1.70;1.60;;;1.20;1.00;;;;;;5049152;28;20586;-82
2021/01/16 17:09:45;;;;;;;3.00;1.30;;;1.10;1.00;;;;;;5039819;28;20234;-79
2021/01/16 17:12:10;;;;;;;2.47;1.98;;;1.10;1.00;;;;;;5025677;28;20185;-79
2021/01/16 17:14:39;;;;;;;2.30;1.40;;;1.10;1.00;;;;;;5026401;28;20172;-79
2021/01/16 17:17:19;;;;;;;4.68;2.13;;;1.00;1.00;;;;;;5034131;28;20311;-79
2021/01/16 17:19:45;;;;;;;1.40;1.33;;;;;;;;;;5024536;28;20219;-83
2021/01/16 17:22:15;;;;;;;4.65;2.22;;;1.00;1.00;;;;;;5017489;28;20208;-76
2021/01/16 17:24:51;;;;;;;1.90;1.70;;;0.90;1.00;;;;;;5033041;28;20188;-76